sensor_id;sensor_type;location;lat;lon;timestamp;pressure;altitude;pressure_sealevel;temperature;humidity
5609;BME280;2826;51.354;9.588;2023-02-11T00:00:43;99809.56;;;2.99;83.82
5609;BME280;2826;51.354;9.588;2023-02-11T00:03:09;99804.56;;;3.07;83.49
5609;BME280;2826;51.354;9.588;2023-02-11T00:05:36;99799.38;;;3.02;83.56
5609;BME280;2826;51.354;9.588;2023-02-11T00:08:03;99798.47;;;3.00;83.72
5609;BME280;2826;51.354;9.588;2023-02-11T00:10:29;99803.53;;;2.97;83.74
5609;BME280;2826;51.354;9.588;2023-02-11T00:12:56;99799.19;;;2.93;83.55
5609;BME280;2826;51.354;9.588;2023-02-11T00:15:24;99799.97;;;2.88;84.24
5609;BME280;2826;51.354;9.588;2023-02-11T00:17:51;99796.53;;;2.86;84.02
5609;BME280;2826;51.354;9.588;2023-02-11T00:20:17;99783.75;;;2.88;84.14
5609;BME280;2826;51.354;9.588;2023-02-11T00:22:44;99775.06;;;2.81;84.18
5609;BME280;2826;51.354;9.588;2023-02-11T00:25:10;99773.19;;;2.71;85.25
5609;BME280;2826;51.354;9.588;2023-02-11T00:27:37;99769.03;;;2.79;84.79
5609;BME280;2826;51.354;9.588;2023-02-11T00:30:04;99763.78;;;2.71;85.14
5609;BME280;2826;51.354;9.588;2023-02-11T00:32:32;99752.72;;;2.72;84.91
5609;BME280;2826;51.354;9.588;2023-02-11T00:34:59;99750.94;;;2.70;85.29
5609;BME280;2826;51.354;9.588;2023-02-11T00:37:26;99749.16;;;2.64;85.61
5609;BME280;2826;51.354;9.588;2023-02-11T00:39:52;99750.94;;;2.70;85.51
5609;BME280;2826;51.354;9.588;2023-02-11T00:42:19;99751.72;;;2.64;85.85
5609;BME280;2826;51.354;9.588;2023-02-11T00:44:45;99755.16;;;2.66;86.25
5609;BME280;2826;51.354;9.588;2023-02-11T00:47:15;99754.31;;;2.67;85.78
5609;BME280;2826;51.354;9.588;2023-02-11T00:49:44;99750.13;;;2.69;85.56
5609;BME280;2826;51.354;9.588;2023-02-11T00:52:10;99746.59;;;2.66;86.31
5609;BME280;2826;51.354;9.588;2023-02-11T00:54:37;99739.00;;;2.69;86.53
5609;BME280;2826;51.354;9.588;2023-02-11T00:57:04;99734.72;;;2.68;86.32
5609;BME280;2826;51.354;9.588;2023-02-11T00:59:31;99739.84;;;2.68;86.69
5609;BME280;2826;51.354;9.588;2023-02-11T01:02:00;99732.34;;;2.79;86.33
5609;BME280;2826;51.354;9.588;2023-02-11T01:04:26;99728.84;;;2.75;86.54
5609;BME280;2826;51.354;9.588;2023-02-11T01:06:54;99734.94;;;2.82;86.46
5609;BME280;2826;51.354;9.588;2023-02-11T01:09:21;99735.75;;;2.78;86.64
5609;BME280;2826;51.354;9.588;2023-02-11T01:11:47;99743.53;;;2.84;86.84
5609;BME280;2826;51.354;9.588;2023-02-11T01:14:14;99737.59;;;2.86;86.50
5609;BME280;2826;51.354;9.588;2023-02-11T01:16:41;99750.28;;;2.79;87.19
5609;BME280;2826;51.354;9.588;2023-02-11T01:19:08;99744.41;;;2.86;86.80
5609;BME280;2826;51.354;9.588;2023-02-11T01:21:34;99736.69;;;2.83;86.89
5609;BME280;2826;51.354;9.588;2023-02-11T01:24:02;99742.69;;;2.85;87.03
5609;BME280;2826;51.354;9.588;2023-02-11T01:26:29;99743.56;;;2.85;86.76
5609;BME280;2826;51.354;9.588;2023-02-11T01:28:56;99747.88;;;2.88;87.02
5609;BME280;2826;51.354;9.588;2023-02-11T01:31:26;99752.09;;;2.86;86.97
5609;BME280;2826;51.354;9.588;2023-02-11T01:33:53;99772.63;;;2.87;86.97
5609;BME280;2826;51.354;9.588;2023-02-11T01:36:19;99781.06;;;2.82;87.04
5609;BME280;2826;51.354;9.588;2023-02-11T01:38:46;99780.28;;;2.86;86.81
5609;BME280;2826;51.354;9.588;2023-02-11T01:41:15;99785.44;;;2.87;87.15
5609;BME280;2826;51.354;9.588;2023-02-11T01:43:44;99788.00;;;2.87;87.18
5609;BME280;2826;51.354;9.588;2023-02-11T01:46:16;99773.47;;;2.86;86.80
5609;BME280;2826;51.354;9.588;2023-02-11T01:48:47;99758.94;;;2.85;87.23
5609;BME280;2826;51.354;9.588;2023-02-11T01:51:18;99753.84;;;2.87;87.46
5609;BME280;2826;51.354;9.588;2023-02-11T01:53:47;99726.38;;;2.80;87.69
5609;BME280;2826;51.354;9.588;2023-02-11T01:56:36;99722.97;;;2.81;87.74
5609;BME280;2826;51.354;9.588;2023-02-11T01:59:26;99732.50;;;2.88;87.34
5609;BME280;2826;51.354;9.588;2023-02-11T02:01:57;99692.00;;;2.68;87.57
5609;BME280;2826;51.354;9.588;2023-02-11T02:04:28;99732.56;;;2.93;87.88
5609;BME280;2826;51.354;9.588;2023-02-11T02:07:00;99743.75;;;2.96;87.80
5609;BME280;2826;51.354;9.588;2023-02-11T02:09:33;99735.13;;;2.91;87.67
5609;BME280;2826;51.354;9.588;2023-02-11T02:12:04;99712.69;;;2.79;88.13
5609;BME280;2826;51.354;9.588;2023-02-11T02:14:31;99720.53;;;2.88;88.73
5609;BME280;2826;51.354;9.588;2023-02-11T02:16:57;99702.44;;;2.78;88.51
5609;BME280;2826;51.354;9.588;2023-02-11T02:20:02;99721.53;;;2.97;88.05
5609;BME280;2826;51.354;9.588;2023-02-11T02:22:48;99716.31;;;2.91;88.52
5609;BME280;2826;51.354;9.588;2023-02-11T02:25:35;99699.25;;;2.93;88.10
5609;BME280;2826;51.354;9.588;2023-02-11T02:28:25;99706.94;;;2.93;88.75
5609;BME280;2826;51.354;9.588;2023-02-11T02:31:11;99695.91;;;2.95;88.62
5609;BME280;2826;51.354;9.588;2023-02-11T02:33:52;99678.56;;;2.82;88.20
5609;BME280;2826;51.354;9.588;2023-02-11T02:36:23;99704.47;;;2.99;88.12
5609;BME280;2826;51.354;9.588;2023-02-11T02:38:59;99688.91;;;2.86;88.59
5609;BME280;2826;51.354;9.588;2023-02-11T02:41:29;99701.81;;;2.93;88.38
5609;BME280;2826;51.354;9.588;2023-02-11T02:43:56;99707.03;;;2.99;88.65
5609;BME280;2826;51.354;9.588;2023-02-11T02:46:25;99719.03;;;3.02;88.41
5609;BME280;2826;51.354;9.588;2023-02-11T02:48:54;99715.56;;;2.99;88.45
5609;BME280;2826;51.354;9.588;2023-02-11T02:51:33;99706.22;;;3.02;88.23
5609;BME280;2826;51.354;9.588;2023-02-11T02:54:18;99701.97;;;3.02;88.35
5609;BME280;2826;51.354;9.588;2023-02-11T02:56:53;99694.28;;;3.02;88.30
5609;BME280;2826;51.354;9.588;2023-02-11T02:59:31;99690.06;;;3.06;88.26
5609;BME280;2826;51.354;9.588;2023-02-11T03:02:09;99689.09;;;2.99;88.52
5609;BME280;2826;51.354;9.588;2023-02-11T03:04:47;99697.72;;;3.04;88.53
5609;BME280;2826;51.354;9.588;2023-02-11T03:07:23;99663.19;;;2.82;88.20
5609;BME280;2826;51.354;9.588;2023-02-11T03:09:57;99683.03;;;2.92;88.68
5609;BME280;2826;51.354;9.588;2023-02-11T03:12:27;99682.25;;;2.99;88.75
5609;BME280;2826;51.354;9.588;2023-02-11T03:14:55;99684.66;;;2.88;88.88
5609;BME280;2826;51.354;9.588;2023-02-11T03:17:22;99673.75;;;3.00;88.42
5609;BME280;2826;51.354;9.588;2023-02-11T03:19:52;99670.41;;;3.05;88.36
5609;BME280;2826;51.354;9.588;2023-02-11T03:22:21;99678.84;;;2.99;88.58
5609;BME280;2826;51.354;9.588;2023-02-11T03:24:51;99674.72;;;3.07;88.42
5609;BME280;2826;51.354;9.588;2023-02-11T03:27:20;99680.69;;;3.08;88.36
5609;BME280;2826;51.354;9.588;2023-02-11T03:29:54;99676.34;;;3.02;88.49
5609;BME280;2826;51.354;9.588;2023-02-11T03:32:25;99674.59;;;3.01;88.82
5609;BME280;2826;51.354;9.588;2023-02-11T03:34:57;99629.81;;;2.76;89.12
5609;BME280;2826;51.354;9.588;2023-02-11T03:37:29;99673.78;;;3.02;88.95
5609;BME280;2826;51.354;9.588;2023-02-11T03:40:01;99664.44;;;3.06;89.05
5609;BME280;2826;51.354;9.588;2023-02-11T03:42:32;99669.66;;;3.13;88.67
5609;BME280;2826;51.354;9.588;2023-02-11T03:45:05;99668.72;;;3.07;88.69
5609;BME280;2826;51.354;9.588;2023-02-11T03:47:36;99660.22;;;3.09;88.80
5609;BME280;2826;51.354;9.588;2023-02-11T03:50:07;99664.50;;;3.12;88.63
5609;BME280;2826;51.354;9.588;2023-02-11T03:52:36;99659.38;;;3.10;88.52
5609;BME280;2826;51.354;9.588;2023-02-11T03:55:08;99637.06;;;3.03;88.56
5609;BME280;2826;51.354;9.588;2023-02-11T03:57:36;99640.47;;;3.02;89.12
5609;BME280;2826;51.354;9.588;2023-02-11T04:00:05;99645.75;;;3.14;88.71
5609;BME280;2826;51.354;9.588;2023-02-11T04:02:37;99638.91;;;3.13;88.73
5609;BME280;2826;51.354;9.588;2023-02-11T04:05:07;99641.50;;;3.15;88.99
5609;BME280;2826;51.354;9.588;2023-02-11T04:07:34;99639.75;;;3.12;89.00
5609;BME280;2826;51.354;9.588;2023-02-11T04:10:01;99635.47;;;3.13;89.17
5609;BME280;2826;51.354;9.588;2023-02-11T04:12:28;99630.31;;;3.10;89.42
5609;BME280;2826;51.354;9.588;2023-02-11T04:14:55;99633.75;;;3.12;89.11
5609;BME280;2826;51.354;9.588;2023-02-11T04:17:21;99632.94;;;3.14;89.38
5609;BME280;2826;51.354;9.588;2023-02-11T04:19:48;99627.88;;;3.18;88.88
5609;BME280;2826;51.354;9.588;2023-02-11T04:22:16;99628.63;;;3.12;89.36
5609;BME280;2826;51.354;9.588;2023-02-11T04:24:43;99632.03;;;3.11;89.52
5609;BME280;2826;51.354;9.588;2023-02-11T04:27:09;99632.13;;;3.16;89.36
5609;BME280;2826;51.354;9.588;2023-02-11T04:29:36;99632.06;;;3.12;89.49
5609;BME280;2826;51.354;9.588;2023-02-11T04:32:03;99619.13;;;3.03;89.54
5609;BME280;2826;51.354;9.588;2023-02-11T04:34:30;99628.66;;;3.13;89.23
5609;BME280;2826;51.354;9.588;2023-02-11T04:36:56;99623.59;;;3.17;89.30
5609;BME280;2826;51.354;9.588;2023-02-11T04:39:24;99630.34;;;3.13;89.29
5609;BME280;2826;51.354;9.588;2023-02-11T04:41:50;99629.44;;;3.09;89.29
5609;BME280;2826;51.354;9.588;2023-02-11T04:44:17;99622.72;;;3.16;89.41
5609;BME280;2826;51.354;9.588;2023-02-11T04:46:44;99638.09;;;3.16;89.48
5609;BME280;2826;51.354;9.588;2023-02-11T04:49:11;99636.38;;;3.15;88.99
5609;BME280;2826;51.354;9.588;2023-02-11T04:51:38;99642.41;;;3.19;89.08
5609;BME280;2826;51.354;9.588;2023-02-11T04:54:05;99626.97;;;3.14;89.08
5609;BME280;2826;51.354;9.588;2023-02-11T04:56:33;99638.09;;;3.16;89.13
5609;BME280;2826;51.354;9.588;2023-02-11T04:59:00;99640.69;;;3.18;89.02
5609;BME280;2826;51.354;9.588;2023-02-11T05:01:26;99634.66;;;3.14;89.45
5609;BME280;2826;51.354;9.588;2023-02-11T05:03:53;99636.44;;;3.18;89.01
5609;BME280;2826;51.354;9.588;2023-02-11T05:06:19;99635.50;;;3.14;89.29
5609;BME280;2826;51.354;9.588;2023-02-11T05:08:46;99638.88;;;3.12;89.53
5609;BME280;2826;51.354;9.588;2023-02-11T05:11:15;99646.69;;;3.20;89.10
5609;BME280;2826;51.354;9.588;2023-02-11T05:13:43;99639.84;;;3.20;88.91
5609;BME280;2826;51.354;9.588;2023-02-11T05:16:10;99633.94;;;3.24;89.09
5609;BME280;2826;51.354;9.588;2023-02-11T05:18:38;99614.19;;;3.16;89.37
5609;BME280;2826;51.354;9.588;2023-02-11T05:21:05;99615.06;;;3.19;89.42
5609;BME280;2826;51.354;9.588;2023-02-11T05:23:32;99622.81;;;3.24;88.95
5609;BME280;2826;51.354;9.588;2023-02-11T05:25:59;99622.81;;;3.24;88.81
5609;BME280;2826;51.354;9.588;2023-02-11T05:28:26;99629.63;;;3.22;89.17
5609;BME280;2826;51.354;9.588;2023-02-11T05:30:55;99626.25;;;3.24;89.14
5609;BME280;2826;51.354;9.588;2023-02-11T05:33:22;99612.34;;;3.07;89.10
5609;BME280;2826;51.354;9.588;2023-02-11T05:35:48;99627.94;;;3.22;89.50
5609;BME280;2826;51.354;9.588;2023-02-11T05:38:15;99628.91;;;3.32;89.13
5609;BME280;2826;51.354;9.588;2023-02-11T05:40:42;99633.16;;;3.30;89.02
5609;BME280;2826;51.354;9.588;2023-02-11T05:43:09;99634.88;;;3.31;88.84
5609;BME280;2826;51.354;9.588;2023-02-11T05:45:36;99631.44;;;3.29;89.20
5609;BME280;2826;51.354;9.588;2023-02-11T05:48:04;99638.28;;;3.29;89.09
5609;BME280;2826;51.354;9.588;2023-02-11T05:50:31;99645.88;;;3.22;89.78
5609;BME280;2826;51.354;9.588;2023-02-11T05:52:57;99643.34;;;3.25;89.47
5609;BME280;2826;51.354;9.588;2023-02-11T05:55:24;99645.94;;;3.27;89.55
5609;BME280;2826;51.354;9.588;2023-02-11T05:57:50;99644.16;;;3.23;89.35
5609;BME280;2826;51.354;9.588;2023-02-11T06:00:17;99656.13;;;3.24;89.75
5609;BME280;2826;51.354;9.588;2023-02-11T06:02:44;99646.00;;;3.30;89.32
5609;BME280;2826;51.354;9.588;2023-02-11T06:05:11;99644.28;;;3.29;89.43
5609;BME280;2826;51.354;9.588;2023-02-11T06:07:38;99642.63;;;3.34;89.31
5609;BME280;2826;51.354;9.588;2023-02-11T06:10:06;99631.44;;;3.31;89.67
5609;BME280;2826;51.354;9.588;2023-02-11T06:12:33;99625.47;;;3.30;89.51
5609;BME280;2826;51.354;9.588;2023-02-11T06:14:59;99630.63;;;3.33;89.59
5609;BME280;2826;51.354;9.588;2023-02-11T06:17:26;99639.16;;;3.32;89.51
5609;BME280;2826;51.354;9.588;2023-02-11T06:19:56;99647.69;;;3.31;89.79
5609;BME280;2826;51.354;9.588;2023-02-11T06:22:23;99640.81;;;3.27;90.04
5609;BME280;2826;51.354;9.588;2023-02-11T06:24:50;99641.75;;;3.34;89.72
5609;BME280;2826;51.354;9.588;2023-02-11T06:27:18;99648.56;;;3.33;89.97
5609;BME280;2826;51.354;9.588;2023-02-11T06:29:45;99640.09;;;3.36;89.83
5609;BME280;2826;51.354;9.588;2023-02-11T06:32:12;99652.00;;;3.34;89.85
5609;BME280;2826;51.354;9.588;2023-02-11T06:34:39;99651.19;;;3.36;89.42
5609;BME280;2826;51.354;9.588;2023-02-11T06:37:05;99653.81;;;3.41;89.58
5609;BME280;2826;51.354;9.588;2023-02-11T06:39:33;99650.38;;;3.39;89.52
5609;BME280;2826;51.354;9.588;2023-02-11T06:42:00;99640.09;;;3.39;89.58
5609;BME280;2826;51.354;9.588;2023-02-11T06:44:26;99634.13;;;3.38;89.47
5609;BME280;2826;51.354;9.588;2023-02-11T06:46:53;99610.00;;;3.22;89.62
5609;BME280;2826;51.354;9.588;2023-02-11T06:49:20;99641.00;;;3.41;89.53
5609;BME280;2826;51.354;9.588;2023-02-11T06:51:46;99646.97;;;3.42;89.36
5609;BME280;2826;51.354;9.588;2023-02-11T06:54:13;99641.81;;;3.37;89.64
5609;BME280;2826;51.354;9.588;2023-02-11T06:56:41;99640.97;;;3.39;89.75
5609;BME280;2826;51.354;9.588;2023-02-11T06:59:08;99650.41;;;3.42;89.64
5609;BME280;2826;51.354;9.588;2023-02-11T07:01:37;99648.66;;;3.39;89.78
5609;BME280;2826;51.354;9.588;2023-02-11T07:04:04;99647.81;;;3.40;89.45
5609;BME280;2826;51.354;9.588;2023-02-11T07:06:31;99649.53;;;3.38;89.55
5609;BME280;2826;51.354;9.588;2023-02-11T07:09:16;99646.97;;;3.42;90.02
5609;BME280;2826;51.354;9.588;2023-02-11T07:11:44;99653.91;;;3.47;89.40
5609;BME280;2826;51.354;9.588;2023-02-11T07:14:10;99655.63;;;3.48;89.74
5609;BME280;2826;51.354;9.588;2023-02-11T07:16:38;99658.97;;;3.44;89.83
5609;BME280;2826;51.354;9.588;2023-02-11T07:19:04;99660.75;;;3.48;89.85
5609;BME280;2826;51.354;9.588;2023-02-11T07:21:31;99650.47;;;3.48;89.72
5609;BME280;2826;51.354;9.588;2023-02-11T07:23:58;99655.72;;;3.55;89.47
5609;BME280;2826;51.354;9.588;2023-02-11T07:26:25;99657.47;;;3.59;89.37
5609;BME280;2826;51.354;9.588;2023-02-11T07:28:53;99661.75;;;3.60;89.47
5609;BME280;2826;51.354;9.588;2023-02-11T07:31:21;99663.56;;;3.65;89.13
5609;BME280;2826;51.354;9.588;2023-02-11T07:33:50;99663.50;;;3.62;89.03
5609;BME280;2826;51.354;9.588;2023-02-11T07:36:17;99650.69;;;3.64;89.09
5609;BME280;2826;51.354;9.588;2023-02-11T07:38:44;99629.25;;;3.57;88.80
5609;BME280;2826;51.354;9.588;2023-02-11T07:41:14;99669.63;;;3.74;88.83
5609;BME280;2826;51.354;9.588;2023-02-11T07:43:42;99674.75;;;3.75;88.62
5609;BME280;2826;51.354;9.588;2023-02-11T07:46:13;99672.22;;;3.74;88.85
5609;BME280;2826;51.354;9.588;2023-02-11T07:48:40;99674.78;;;3.74;88.88
5609;BME280;2826;51.354;9.588;2023-02-11T07:51:08;99675.59;;;3.73;88.65
5609;BME280;2826;51.354;9.588;2023-02-11T07:53:35;99677.28;;;3.71;89.20
5609;BME280;2826;51.354;9.588;2023-02-11T07:56:03;99622.13;;;3.34;88.67
5609;BME280;2826;51.354;9.588;2023-02-11T07:58:31;99679.91;;;3.74;88.98
5609;BME280;2826;51.354;9.588;2023-02-11T08:01:02;99672.16;;;3.71;89.25
5609;BME280;2826;51.354;9.588;2023-02-11T08:03:30;99681.59;;;3.73;89.26
5609;BME280;2826;51.354;9.588;2023-02-11T08:05:57;99690.97;;;3.73;89.38
5609;BME280;2826;51.354;9.588;2023-02-11T08:08:24;99689.25;;;3.70;89.61
5609;BME280;2826;51.354;9.588;2023-02-11T08:10:52;99697.84;;;3.75;89.25
5609;BME280;2826;51.354;9.588;2023-02-11T08:13:20;99702.13;;;3.73;89.33
5609;BME280;2826;51.354;9.588;2023-02-11T08:15:46;99696.97;;;3.72;89.55
5609;BME280;2826;51.354;9.588;2023-02-11T08:18:12;99707.25;;;3.73;89.38
5609;BME280;2826;51.354;9.588;2023-02-11T08:20:40;99704.72;;;3.75;89.59
5609;BME280;2826;51.354;9.588;2023-02-11T08:23:07;99710.56;;;3.66;89.95
5609;BME280;2826;51.354;9.588;2023-02-11T08:25:33;99715.00;;;3.78;89.87
5609;BME280;2826;51.354;9.588;2023-02-11T08:28:00;99720.94;;;3.75;89.92
5609;BME280;2826;51.354;9.588;2023-02-11T08:30:27;99697.72;;;3.64;89.93
5609;BME280;2826;51.354;9.588;2023-02-11T08:32:53;99718.47;;;3.80;89.57
5609;BME280;2826;51.354;9.588;2023-02-11T08:35:20;99720.06;;;3.72;90.04
5609;BME280;2826;51.354;9.588;2023-02-11T08:37:48;99715.88;;;3.78;89.93
5609;BME280;2826;51.354;9.588;2023-02-11T08:40:15;99719.31;;;3.82;90.28
5609;BME280;2826;51.354;9.588;2023-02-11T08:42:43;99720.28;;;3.87;89.60
5609;BME280;2826;51.354;9.588;2023-02-11T08:45:10;99726.25;;;3.88;89.75
5609;BME280;2826;51.354;9.588;2023-02-11T08:47:36;99720.28;;;3.87;90.09
5609;BME280;2826;51.354;9.588;2023-02-11T08:50:04;99716.91;;;3.95;89.78
5609;BME280;2826;51.354;9.588;2023-02-11T08:52:31;99710.13;;;3.97;89.64
5609;BME280;2826;51.354;9.588;2023-02-11T08:54:59;99714.44;;;3.99;89.65
5609;BME280;2826;51.354;9.588;2023-02-11T08:57:26;99713.66;;;4.08;89.49
5609;BME280;2826;51.354;9.588;2023-02-11T08:59:53;99717.13;;;4.10;89.29
5609;BME280;2826;51.354;9.588;2023-02-11T09:02:26;99713.75;;;4.16;88.92
5609;BME280;2826;51.354;9.588;2023-02-11T09:04:52;99716.41;;;4.22;89.10
5609;BME280;2826;51.354;9.588;2023-02-11T09:07:19;99724.09;;;4.22;88.68
5609;BME280;2826;51.354;9.588;2023-02-11T09:09:46;99721.56;;;4.25;88.81
5609;BME280;2826;51.354;9.588;2023-02-11T09:12:14;99725.91;;;4.31;88.24
5609;BME280;2826;51.354;9.588;2023-02-11T09:14:40;99731.94;;;4.35;88.36
5609;BME280;2826;51.354;9.588;2023-02-11T09:17:07;99735.44;;;4.40;88.07
5609;BME280;2826;51.354;9.588;2023-02-11T09:19:34;99733.75;;;4.45;87.90
5609;BME280;2826;51.354;9.588;2023-02-11T09:22:01;99733.88;;;4.56;87.81
5609;BME280;2826;51.354;9.588;2023-02-11T09:24:27;99727.88;;;4.57;87.59
5609;BME280;2826;51.354;9.588;2023-02-11T09:26:54;99719.44;;;4.69;87.43
5609;BME280;2826;51.354;9.588;2023-02-11T09:29:22;99715.22;;;4.77;86.90
5609;BME280;2826;51.354;9.588;2023-02-11T09:31:48;99717.84;;;4.85;87.22
5609;BME280;2826;51.354;9.588;2023-02-11T09:34:15;99713.59;;;4.87;86.35
5609;BME280;2826;51.354;9.588;2023-02-11T09:36:42;99715.34;;;4.90;86.59
5609;BME280;2826;51.354;9.588;2023-02-11T09:39:11;99717.03;;;4.88;86.05
5609;BME280;2826;51.354;9.588;2023-02-11T09:41:46;99713.63;;;4.92;85.83
5609;BME280;2826;51.354;9.588;2023-02-11T09:44:17;99722.22;;;4.94;85.68
5609;BME280;2826;51.354;9.588;2023-02-11T09:46:52;99720.56;;;4.99;85.60
5609;BME280;2826;51.354;9.588;2023-02-11T09:49:23;99719.69;;;4.95;85.70
5609;BME280;2826;51.354;9.588;2023-02-11T09:51:56;99722.22;;;4.92;85.70
5609;BME280;2826;51.354;9.588;2023-02-11T09:54:28;99720.56;;;5.01;85.23
5609;BME280;2826;51.354;9.588;2023-02-11T09:56:58;99729.22;;;5.10;84.93
5609;BME280;2826;51.354;9.588;2023-02-11T09:59:24;99731.78;;;5.09;85.12
5609;BME280;2826;51.354;9.588;2023-02-11T10:01:57;99721.53;;;5.17;84.69
5609;BME280;2826;51.354;9.588;2023-02-11T10:04:43;99731.88;;;5.20;84.07
5609;BME280;2826;51.354;9.588;2023-02-11T10:07:20;99738.75;;;5.22;84.34
5609;BME280;2826;51.354;9.588;2023-02-11T10:10:03;99728.47;;;5.29;84.16
5609;BME280;2826;51.354;9.588;2023-02-11T10:12:44;99713.78;;;5.09;84.11
5609;BME280;2826;51.354;9.588;2023-02-11T10:15:20;99743.84;;;5.19;84.22
5609;BME280;2826;51.354;9.588;2023-02-11T10:18:02;99739.63;;;5.26;84.01
5609;BME280;2826;51.354;9.588;2023-02-11T10:20:36;99742.19;;;5.26;84.42
5609;BME280;2826;51.354;9.588;2023-02-11T10:23:09;99692.22;;;4.91;84.23
5609;BME280;2826;51.354;9.588;2023-02-11T10:25:42;99743.00;;;5.22;83.88
5609;BME280;2826;51.354;9.588;2023-02-11T10:28:12;99749.03;;;5.27;83.58
5609;BME280;2826;51.354;9.588;2023-02-11T10:30:42;99763.66;;;5.33;83.33
5609;BME280;2826;51.354;9.588;2023-02-11T10:33:19;99762.78;;;5.28;83.44
5609;BME280;2826;51.354;9.588;2023-02-11T10:35:48;99772.22;;;5.30;83.87
5609;BME280;2826;51.354;9.588;2023-02-11T10:38:15;99772.22;;;5.30;83.82
5609;BME280;2826;51.354;9.588;2023-02-11T10:40:41;99758.50;;;5.28;83.63
5609;BME280;2826;51.354;9.588;2023-02-11T10:43:11;99752.53;;;5.35;83.46
5609;BME280;2826;51.354;9.588;2023-02-11T10:45:41;99753.44;;;5.39;84.08
5609;BME280;2826;51.354;9.588;2023-02-11T10:48:38;99761.16;;;5.42;83.22
5609;BME280;2826;51.354;9.588;2023-02-11T10:51:16;99758.63;;;5.45;83.45
5609;BME280;2826;51.354;9.588;2023-02-11T10:53:44;99762.09;;;5.52;83.37
5609;BME280;2826;51.354;9.588;2023-02-11T10:56:18;99747.38;;;5.34;83.32
5609;BME280;2826;51.354;9.588;2023-02-11T10:58:55;99762.13;;;5.55;82.97
5609;BME280;2826;51.354;9.588;2023-02-11T11:01:37;99759.53;;;5.52;83.12
5609;BME280;2826;51.354;9.588;2023-02-11T11:04:24;99759.53;;;5.57;82.92
5609;BME280;2826;51.354;9.588;2023-02-11T11:06:52;99757.88;;;5.60;83.21
5609;BME280;2826;51.354;9.588;2023-02-11T11:09:26;99752.72;;;5.62;83.03
5609;BME280;2826;51.354;9.588;2023-02-11T11:11:54;99763.00;;;5.63;82.88
5609;BME280;2826;51.354;9.588;2023-02-11T11:14:22;99757.91;;;5.68;82.75
5609;BME280;2826;51.354;9.588;2023-02-11T11:16:54;99761.38;;;5.77;82.80
5609;BME280;2826;51.354;9.588;2023-02-11T11:19:23;99757.09;;;5.75;82.41
5609;BME280;2826;51.354;9.588;2023-02-11T11:21:52;99757.94;;;5.76;82.32
5609;BME280;2826;51.354;9.588;2023-02-11T11:24:20;99760.53;;;5.73;82.65
5609;BME280;2826;51.354;9.588;2023-02-11T11:26:49;99762.22;;;5.77;82.63
5609;BME280;2826;51.354;9.588;2023-02-11T11:29:18;99767.41;;;5.80;82.77
5609;BME280;2826;51.354;9.588;2023-02-11T11:31:49;99770.84;;;5.81;82.49
5609;BME280;2826;51.354;9.588;2023-02-11T11:34:27;99769.97;;;5.79;82.74
5609;BME280;2826;51.354;9.588;2023-02-11T11:36:56;99766.56;;;5.78;83.06
5609;BME280;2826;51.354;9.588;2023-02-11T11:39:25;99758.81;;;5.81;83.00
5609;BME280;2826;51.354;9.588;2023-02-11T11:41:57;99748.47;;;5.70;83.23
5609;BME280;2826;51.354;9.588;2023-02-11T11:44:28;99747.69;;;5.82;83.23
5609;BME280;2826;51.354;9.588;2023-02-11T11:47:20;99752.78;;;5.76;83.75
5609;BME280;2826;51.354;9.588;2023-02-11T11:49:58;99763.94;;;5.75;83.72
5609;BME280;2826;51.354;9.588;2023-02-11T11:52:38;99767.44;;;5.83;83.55
5609;BME280;2826;51.354;9.588;2023-02-11T11:55:13;99762.28;;;5.83;83.39
5609;BME280;2826;51.354;9.588;2023-02-11T11:57:44;99755.44;;;5.84;83.31
5609;BME280;2826;51.354;9.588;2023-02-11T12:00:16;99755.44;;;5.88;83.38
5609;BME280;2826;51.354;9.588;2023-02-11T12:05:53;99751.16;;;5.92;83.70
5609;BME280;2826;51.354;9.588;2023-02-11T12:08:35;99755.47;;;5.92;83.41
5609;BME280;2826;51.354;9.588;2023-02-11T12:11:11;99748.59;;;5.91;83.76
5609;BME280;2826;51.354;9.588;2023-02-11T12:13:50;99746.84;;;5.89;83.91
5609;BME280;2826;51.354;9.588;2023-02-11T12:16:30;99743.41;;;5.86;83.95
5609;BME280;2826;51.354;9.588;2023-02-11T12:19:16;99750.34;;;5.98;83.93
5609;BME280;2826;51.354;9.588;2023-02-11T12:21:56;99748.59;;;5.95;83.77
5609;BME280;2826;51.354;9.588;2023-02-11T12:24:38;99747.78;;;5.99;83.62
5609;BME280;2826;51.354;9.588;2023-02-11T12:27:15;99746.91;;;5.96;84.02
5609;BME280;2826;51.354;9.588;2023-02-11T12:29:54;99744.31;;;5.94;84.11
5609;BME280;2826;51.354;9.588;2023-02-11T12:32:31;99739.16;;;5.94;84.08
5609;BME280;2826;51.354;9.588;2023-02-11T12:35:24;99744.28;;;5.91;84.01
5609;BME280;2826;51.354;9.588;2023-02-11T12:38:12;99742.59;;;5.92;84.07
5609;BME280;2826;51.354;9.588;2023-02-11T12:40:45;99756.31;;;5.89;84.30
5609;BME280;2826;51.354;9.588;2023-02-11T12:43:21;99752.91;;;5.93;84.33
5609;BME280;2826;51.354;9.588;2023-02-11T12:49:36;99745.16;;;5.96;84.33
5609;BME280;2826;51.354;9.588;2023-02-11T12:52:18;99748.59;;;5.94;84.54
5609;BME280;2826;51.354;9.588;2023-02-11T12:54:54;99746.03;;;5.97;84.38
5609;BME280;2826;51.354;9.588;2023-02-11T12:57:25;99744.34;;;6.00;84.65
5609;BME280;2826;51.354;9.588;2023-02-11T12:59:57;99748.63;;;6.01;84.67
5609;BME280;2826;51.354;9.588;2023-02-11T13:02:37;99744.41;;;6.07;84.57
5609;BME280;2826;51.354;9.588;2023-02-11T13:05:15;99741.81;;;6.10;84.44
5609;BME280;2826;51.354;9.588;2023-02-11T13:07:45;99747.88;;;6.13;84.51
5609;BME280;2826;51.354;9.588;2023-02-11T13:10:25;99738.44;;;6.16;84.27
5609;BME280;2826;51.354;9.588;2023-02-11T13:12:55;99741.84;;;6.19;84.60
5609;BME280;2826;51.354;9.588;2023-02-11T13:15:40;99748.78;;;6.26;84.31
5609;BME280;2826;51.354;9.588;2023-02-11T13:18:16;99736.75;;;6.32;84.24
5609;BME280;2826;51.354;9.588;2023-02-11T13:20:48;99741.06;;;6.31;83.95
5609;BME280;2826;51.354;9.588;2023-02-11T13:23:21;99734.19;;;6.32;84.03
5609;BME280;2826;51.354;9.588;2023-02-11T13:25:54;99730.75;;;6.30;84.03
5609;BME280;2826;51.354;9.588;2023-02-11T13:28:28;99737.63;;;6.31;84.25
5609;BME280;2826;51.354;9.588;2023-02-11T13:30:59;99730.75;;;6.33;83.93
5609;BME280;2826;51.354;9.588;2023-02-11T13:33:35;99730.75;;;6.31;84.55
5609;BME280;2826;51.354;9.588;2023-02-11T13:36:21;99731.63;;;6.35;84.22
5609;BME280;2826;51.354;9.588;2023-02-11T13:39:16;99735.94;;;6.42;84.33
5609;BME280;2826;51.354;9.588;2023-02-11T13:41:46;99739.38;;;6.46;84.17
5609;BME280;2826;51.354;9.588;2023-02-11T13:44:25;99736.81;;;6.49;84.36
5609;BME280;2826;51.354;9.588;2023-02-11T13:46:58;99739.41;;;6.57;83.99
5609;BME280;2826;51.354;9.588;2023-02-11T13:49:30;99743.72;;;6.62;83.79
5609;BME280;2826;51.354;9.588;2023-02-11T13:51:59;99743.72;;;6.62;83.72
5609;BME280;2826;51.354;9.588;2023-02-11T13:54:31;99742.88;;;6.65;83.80
5609;BME280;2826;51.354;9.588;2023-02-11T13:57:39;99735.97;;;6.61;83.91